createdAt,value
2017-05-22T00:00:02.226Z,11.52
2017-05-22T00:10:02.572Z,11.39
2017-05-22T00:20:02.303Z,11.31
2017-05-22T00:30:02.761Z,11.16
2017-05-22T00:40:02.773Z,11.16
2017-05-22T00:50:02.779Z,11.08
2017-05-22T01:00:02.209Z,10.96
2017-05-22T01:10:02.939Z,10.87
2017-05-22T01:20:02.193Z,10.73
2017-05-22T01:30:02.613Z,10.59
2017-05-22T01:40:03.022Z,10.51
2017-05-22T01:50:02.624Z,10.42
2017-05-22T02:00:03.142Z,10.33
2017-05-22T02:10:02.811Z,10.25
2017-05-22T02:20:02.288Z,10.16
2017-05-22T02:30:02.749Z,10.14
2017-05-22T02:40:02.183Z,10.13
2017-05-22T02:50:02.871Z,10.07
2017-05-22T03:00:02.332Z,9.99
2017-05-22T03:10:02.751Z,9.88
2017-05-22T03:20:02.443Z,9.78
2017-05-22T03:30:02.928Z,9.76
2017-05-22T03:40:02.401Z,9.69
2017-05-22T03:50:02.301Z,9.6
2017-05-22T04:00:02.780Z,9.42
2017-05-22T04:10:02.677Z,9.53
2017-05-22T04:20:02.513Z,9.63
2017-05-22T04:30:02.759Z,9.77
2017-05-22T04:40:02.345Z,9.99
2017-05-22T04:50:02.174Z,10.19
2017-05-22T05:00:02.285Z,10.37
2017-05-22T05:10:02.698Z,10.55
2017-05-22T05:20:02.938Z,10.77
2017-05-22T05:30:02.224Z,10.96
2017-05-22T05:40:02.320Z,11.15
2017-05-22T05:50:02.616Z,11.41
2017-05-22T06:00:02.708Z,11.66
2017-05-22T06:10:02.782Z,11.9
2017-05-22T06:20:02.411Z,12.16
2017-05-22T06:30:02.492Z,12.45
2017-05-22T06:40:02.616Z,12.82
2017-05-22T06:50:02.280Z,13.24
2017-05-22T07:00:02.371Z,13.78
2017-05-22T07:10:02.495Z,15.77
2017-05-22T07:20:03.048Z,17.66
2017-05-22T07:30:02.134Z,19.12
2017-05-22T07:40:02.241Z,20.14
2017-05-22T07:50:02.966Z,21.08
2017-05-22T08:00:03.067Z,21.58
2017-05-22T08:10:02.186Z,22.17
2017-05-22T08:20:02.189Z,22.8
2017-05-22T08:30:02.285Z,23.37
2017-05-22T08:40:02.393Z,23.75
2017-05-22T08:50:02.794Z,24.1
2017-05-22T09:00:02.929Z,24.43
2017-05-22T09:10:03.007Z,24.86
2017-05-22T09:20:02.822Z,25.17
2017-05-22T09:30:02.880Z,25.27
2017-05-22T09:40:02.994Z,25.5
2017-05-22T09:50:02.613Z,25.71
2017-05-22T10:00:02.730Z,25.6
2017-05-22T10:10:02.812Z,25.22
2017-05-22T10:20:03.063Z,24.69
2017-05-22T10:30:02.172Z,24.19
2017-05-22T10:40:02.256Z,24.26
2017-05-22T10:50:02.248Z,23.31
2017-05-22T11:00:02.406Z,22.77
2017-05-22T11:10:02.480Z,22.17
2017-05-22T11:20:02.208Z,21.89
2017-05-22T11:30:02.298Z,22.08
2017-05-22T11:40:02.383Z,22.27
2017-05-22T11:50:02.681Z,22.56
2017-05-22T12:00:02.794Z,23.05
2017-05-22T12:10:02.897Z,22.99
2017-05-22T12:20:02.271Z,22.44
2017-05-22T12:30:02.329Z,22.82
2017-05-22T12:40:02.452Z,23.54
2017-05-22T12:50:02.164Z,23.05
2017-05-22T13:00:02.269Z,22.4
2017-05-22T13:10:02.347Z,22.01
2017-05-22T13:20:02.676Z,21.98
2017-05-22T13:30:02.833Z,22.49
2017-05-22T13:40:02.859Z,21.98
2017-05-22T13:50:02.465Z,21.6
2017-05-22T14:00:02.575Z,22.06
2017-05-22T14:10:02.661Z,22.36
2017-05-22T14:20:02.863Z,22.57
2017-05-22T14:30:02.951Z,22.84
2017-05-22T14:40:03.081Z,23
2017-05-22T14:50:02.666Z,22.69
2017-05-22T15:00:02.802Z,23
2017-05-22T15:10:02.893Z,23.11
2017-05-22T15:20:02.933Z,23.07
2017-05-22T15:30:03.001Z,22.85
2017-05-22T15:40:03.153Z,22.79
2017-05-22T15:50:02.344Z,22.7
2017-05-22T16:00:02.456Z,22.51
2017-05-22T16:10:02.516Z,22.22
2017-05-22T16:20:02.756Z,21.98
2017-05-22T16:30:02.849Z,21.92
2017-05-22T16:40:03.228Z,21.79
2017-05-22T16:50:03.102Z,21.62
2017-05-22T17:00:02.202Z,21.39
2017-05-22T17:10:02.274Z,21.24
2017-05-22T17:20:03.101Z,21.08
2017-05-22T17:30:02.185Z,20.85
2017-05-22T17:40:02.327Z,20.66
2017-05-22T17:50:02.554Z,20.45
2017-05-22T18:00:02.649Z,20.25
2017-05-22T18:10:02.159Z,20.03
2017-05-22T18:20:02.349Z,19.65
2017-05-22T18:30:02.791Z,19.23
2017-05-22T18:40:02.352Z,18.84
2017-05-22T18:50:03.060Z,18.51
2017-05-22T19:00:02.625Z,18.12
2017-05-22T19:10:02.518Z,17.72
2017-05-22T19:20:02.272Z,17.36
2017-05-22T19:30:02.760Z,17.03
2017-05-22T19:40:02.262Z,16.71
2017-05-22T19:50:02.694Z,16.41
2017-05-22T20:00:02.190Z,16.15
2017-05-22T20:10:02.344Z,15.88
2017-05-22T20:20:02.578Z,15.66
2017-05-22T20:30:03.056Z,15.39
2017-05-22T20:40:02.539Z,15.14
2017-05-22T20:50:02.328Z,14.97
2017-05-22T21:00:02.827Z,14.77
2017-05-22T21:10:02.867Z,14.54
2017-05-22T21:20:02.655Z,14.3
2017-05-22T21:30:03.107Z,14.17
2017-05-22T21:40:02.531Z,14.06
2017-05-22T21:50:02.169Z,13.94
2017-05-22T22:00:02.668Z,13.89
2017-05-22T22:10:02.420Z,13.91
2017-05-22T22:20:02.318Z,13.89
2017-05-22T22:30:02.793Z,13.91
2017-05-22T22:40:02.592Z,13.84
2017-05-22T22:50:02.515Z,13.84
2017-05-22T23:00:02.945Z,13.83
2017-05-22T23:10:02.680Z,13.75
2017-05-22T23:20:02.609Z,13.66
2017-05-22T23:30:03.067Z,13.6
2017-05-22T23:40:02.926Z,13.53
2017-05-22T23:50:02.893Z,13.43
